Time;durP1;ratioP1;P1;durP2;ratioP2;P2;SDS_P1;SDS_P2;PMS_P1;PMS_P2;Temp;Humidity;BMP_temperature;BMP_pressure;BME280_temperature;BME280_humidity;BME280_pressure;Samples;Min_cycle;Max_cycle;Signal;HPM_P1;HPM_P2
2022/03/16 00:02:08;;;;;;;23.87;11.40;;;;;;;;;;5073714;28;20406;-71
2022/03/16 00:04:34;;;;;;;11.90;10.70;;;;;;;;;;5073681;28;20418;-71
2022/03/16 00:07:00;;;;;;;16.13;10.57;;;;;;;;;;5073780;28;20457;-73
2022/03/16 00:09:26;;;;;;;15.33;11.40;;;;;;;;;;5072616;28;20430;-72
2022/03/16 00:11:52;;;;;;;19.60;10.57;;;;;;;;;;5073785;28;20410;-71
2022/03/16 00:14:18;;;;;;;19.07;10.43;;;;;;;;;;5073470;28;20772;-71
2022/03/16 00:16:44;;;;;;;15.33;9.70;;;;;;;;;;5073635;28;20406;-71
2022/03/16 00:19:10;;;;;;;20.57;10.23;;;;;;;;;;5073456;28;20422;-72
2022/03/16 00:21:36;;;;;;;11.77;9.63;;;;;;;;;;5073408;28;20552;-71
2022/03/16 00:24:02;;;;;;;16.67;9.37;;;;;;;;;;5073373;28;20422;-72
2022/03/16 00:26:29;;;;;;;10.83;9.00;;;;;;;;;;5073374;28;20873;-71
2022/03/16 00:28:54;;;;;;;12.17;9.47;;;;;;;;;;5073250;28;20481;-72
2022/03/16 00:31:20;;;;;;;16.00;9.10;;;;;;;;;;5073379;28;20392;-71
2022/03/16 00:33:46;;;;;;;16.80;8.70;;;;;;;;;;5072029;28;20484;-71
2022/03/16 00:36:12;;;;;;;13.67;10.33;;;;;;;;;;5073331;28;20580;-71
2022/03/16 00:38:38;;;;;;;10.03;8.63;;;;;;;;;;5073106;28;21031;-71
2022/03/16 00:41:04;;;;;;;15.93;9.87;;;;;;;;;;5073270;28;20465;-73
2022/03/16 00:43:30;;;;;;;12.43;9.50;;;;;;;;;;5073238;28;20962;-72
2022/03/16 00:45:56;;;;;;;11.03;9.80;;;;;;;;;;5073420;28;20421;-71
2022/03/16 00:48:22;;;;;;;11.13;9.20;;;;;;;;;;5073222;28;20829;-71
2022/03/16 00:50:48;;;;;;;21.73;9.60;;;;;;;;;;5075983;28;20483;-71
2022/03/16 00:53:14;;;;;;;11.90;9.20;;;;;;;;;;5077182;28;20450;-71
2022/03/16 00:55:40;;;;;;;13.53;9.87;;;;;;;;;;5077126;28;20413;-71
2022/03/16 00:58:06;;;;;;;12.87;8.80;;;;;;;;;;5077043;28;20414;-72
2022/03/16 01:00:32;;;;;;;11.93;9.63;;;;;;;;;;5077057;28;20497;-72
2022/03/16 01:02:58;;;;;;;15.57;9.10;;;;;;;;;;5077070;28;20414;-73
2022/03/16 01:05:24;;;;;;;10.43;9.43;;;;;;;;;;5076915;28;20984;-71
2022/03/16 01:07:50;;;;;;;11.17;9.00;;;;;;;;;;5076801;28;20473;-72
2022/03/16 01:10:16;;;;;;;15.40;9.67;;;;;;;;;;5076863;28;20767;-71
2022/03/16 01:12:42;;;;;;;17.20;10.47;;;;;;;;;;5077056;28;20414;-72
2022/03/16 01:15:08;;;;;;;11.67;9.63;;;;;;;;;;5076701;28;20410;-71
2022/03/16 01:17:34;;;;;;;14.20;9.90;;;;;;;;;;5076996;28;20786;-71
2022/03/16 01:20:00;;;;;;;26.23;9.77;;;;;;;;;;5076606;28;20406;-71
2022/03/16 01:22:26;;;;;;;15.33;10.50;;;;;;;;;;5076542;28;20762;-72
2022/03/16 01:24:52;;;;;;;11.47;10.27;;;;;;;;;;5076554;28;20472;-72
2022/03/16 01:27:18;;;;;;;16.03;11.00;;;;;;;;;;5076421;28;20453;-71
2022/03/16 01:29:44;;;;;;;14.70;11.53;;;;;;;;;;5076519;28;20486;-71
2022/03/16 01:32:10;;;;;;;19.87;12.40;;;;;;;;;;5076414;28;20469;-72
2022/03/16 01:34:36;;;;;;;12.50;11.03;;;;;;;;;;5076358;28;20911;-71
2022/03/16 01:37:03;;;;;;;22.87;12.00;;;;;;;;;;5076304;28;20499;-73
2022/03/16 01:39:29;;;;;;;14.80;12.70;;;;;;;;;;5076362;28;20410;-71
2022/03/16 01:41:55;;;;;;;14.40;12.50;;;;;;;;;;5076314;28;20402;-71
2022/03/16 01:44:40;;;;;;;16.53;12.07;;;;;;;;;;5076192;28;20422;-71
2022/03/16 01:47:06;;;;;;;27.33;12.17;;;;;;;;;;5076123;28;20469;-72
2022/03/16 01:49:32;;;;;;;17.37;12.03;;;;;;;;;;5076192;28;20493;-72
2022/03/16 01:51:58;;;;;;;12.90;11.53;;;;;;;;;;5076044;28;20881;-71
2022/03/16 01:54:24;;;;;;;20.47;13.03;;;;;;;;;;5076027;28;20398;-71
2022/03/16 01:56:50;;;;;;;22.30;12.90;;;;;;;;;;5075998;28;20408;-72
2022/03/16 01:59:16;;;;;;;15.20;13.63;;;;;;;;;;5075440;28;20767;-72
2022/03/16 02:01:42;;;;;;;23.27;16.93;;;;;;;;;;5075914;28;20456;-71
2022/03/16 02:04:08;;;;;;;23.87;17.60;;;;;;;;;;5075845;28;20406;-72
2022/03/16 02:06:34;;;;;;;36.37;22.00;;;;;;;;;;5075904;28;20402;-71
2022/03/16 02:09:00;;;;;;;28.33;22.03;;;;;;;;;;5075700;28;20948;-71
2022/03/16 02:11:26;;;;;;;30.33;22.07;;;;;;;;;;5075774;28;20493;-71
2022/03/16 02:13:52;;;;;;;40.93;24.80;;;;;;;;;;5074428;28;20430;-72
2022/03/16 02:16:18;;;;;;;31.93;22.80;;;;;;;;;;5074318;28;20436;-70
2022/03/16 02:18:45;;;;;;;35.93;25.70;;;;;;;;;;5075617;28;20445;-71
2022/03/16 02:21:12;;;;;;;39.60;28.00;;;;;;;;;;5074308;28;20556;-72
2022/03/16 02:23:39;;;;;;;41.63;26.80;;;;;;;;;;5075416;28;20425;-71
2022/03/16 02:26:05;;;;;;;47.60;28.70;;;;;;;;;;5075477;28;20435;-71
2022/03/16 02:28:31;;;;;;;41.93;29.10;;;;;;;;;;5074340;28;20612;-70
2022/03/16 02:30:59;;;;;;;46.13;29.27;;;;;;;;;;5075657;28;20774;-70
2022/03/16 02:33:25;;;;;;;104.93;32.87;;;;;;;;;;5075560;28;20385;-70
2022/03/16 02:35:51;;;;;;;42.80;31.97;;;;;;;;;;5075265;28;20425;-71
2022/03/16 02:38:17;;;;;;;97.17;34.07;;;;;;;;;;5075015;28;20436;-71
2022/03/16 02:40:43;;;;;;;109.90;35.77;;;;;;;;;;5075160;28;20404;-71
2022/03/16 02:43:09;;;;;;;47.80;32.40;;;;;;;;;;5074969;28;20416;-72
2022/03/16 02:45:36;;;;;;;107.47;36.20;;;;;;;;;;5073703;28;20440;-70
2022/03/16 02:48:02;;;;;;;177.67;37.63;;;;;;;;;;5074941;28;20515;-71
2022/03/16 02:50:28;;;;;;;58.07;34.43;;;;;;;;;;5074824;28;20402;-71
2022/03/16 02:52:54;;;;;;;167.13;39.50;;;;;;;;;;5074911;28;20956;-72
2022/03/16 02:55:20;;;;;;;77.90;34.27;;;;;;;;;;5074841;28;20806;-71
2022/03/16 02:57:46;;;;;;;74.43;38.70;;;;;;;;;;5074801;28;20417;-73
2022/03/16 03:00:13;;;;;;;111.33;40.07;;;;;;;;;;5074655;28;20417;-71
2022/03/16 03:02:41;;;;;;;65.87;36.07;;;;;;;;;;5074656;28;20387;-71
2022/03/16 03:05:07;;;;;;;56.17;34.43;;;;;;;;;;5074943;28;20398;-72
2022/03/16 03:07:33;;;;;;;72.30;37.47;;;;;;;;;;5074490;28;20473;-72
2022/03/16 03:09:59;;;;;;;52.37;34.17;;;;;;;;;;5074494;28;20398;-72
2022/03/16 03:12:25;;;;;;;72.53;35.27;;;;;;;;;;5073704;28;20459;-72
2022/03/16 03:14:51;;;;;;;63.57;36.47;;;;;;;;;;5074417;28;20421;-72
2022/03/16 03:17:17;;;;;;;70.40;36.33;;;;;;;;;;5074300;28;20889;-72
2022/03/16 03:19:43;;;;;;;80.97;42.60;;;;;;;;;;5073376;28;20456;-71
2022/03/16 03:22:09;;;;;;;76.87;36.07;;;;;;;;;;5074309;28;20414;-72
2022/03/16 03:24:36;;;;;;;74.53;39.63;;;;;;;;;;5074305;28;20775;-71
2022/03/16 03:27:02;;;;;;;67.73;37.90;;;;;;;;;;5074257;28;20417;-72
2022/03/16 03:29:28;;;;;;;58.20;37.30;;;;;;;;;;5074127;28;20401;-71
2022/03/16 03:31:54;;;;;;;55.07;36.67;;;;;;;;;;5072908;28;20889;-72
2022/03/16 03:34:20;;;;;;;109.00;39.80;;;;;;;;;;5074077;28;20568;-71
2022/03/16 03:36:46;;;;;;;99.40;42.97;;;;;;;;;;5073945;28;20385;-72
2022/03/16 03:39:12;;;;;;;77.10;40.40;;;;;;;;;;5073774;28;20470;-71
2022/03/16 03:41:38;;;;;;;84.77;41.80;;;;;;;;;;5073889;28;20767;-71
2022/03/16 03:44:04;;;;;;;82.63;40.83;;;;;;;;;;5073938;28;20380;-71
2022/03/16 03:46:30;;;;;;;79.57;42.07;;;;;;;;;;5073839;28;20822;-72
2022/03/16 03:48:56;;;;;;;154.60;48.73;;;;;;;;;;5073722;28;20556;-72
2022/03/16 03:51:22;;;;;;;108.37;48.80;;;;;;;;;;5073787;28;20406;-71
2022/03/16 03:53:48;;;;;;;107.07;48.37;;;;;;;;;;5073844;28;20406;-72
2022/03/16 03:56:14;;;;;;;127.03;49.90;;;;;;;;;;5073752;28;20885;-72
2022/03/16 03:58:40;;;;;;;228.20;50.40;;;;;;;;;;5072420;28;20449;-72
2022/03/16 04:01:06;;;;;;;129.43;48.70;;;;;;;;;;5073595;28;20406;-73
2022/03/16 04:03:32;;;;;;;103.40;51.53;;;;;;;;;;5073615;28;20446;-71
2022/03/16 04:05:59;;;;;;;119.50;52.70;;;;;;;;;;5073551;28;20493;-72
2022/03/16 04:08:26;;;;;;;123.17;56.40;;;;;;;;;;5072431;28;20564;-71
2022/03/16 04:10:52;;;;;;;109.83;51.83;;;;;;;;;;5073864;28;20770;-71
2022/03/16 04:13:18;;;;;;;124.17;51.80;;;;;;;;;;5073391;28;20425;-71
2022/03/16 04:15:44;;;;;;;115.63;51.17;;;;;;;;;;5073733;28;20398;-71
2022/03/16 04:18:10;;;;;;;153.90;54.77;;;;;;;;;;5073525;28;20384;-71
2022/03/16 04:20:36;;;;;;;208.00;58.03;;;;;;;;;;5073343;28;20460;-71
2022/03/16 04:23:02;;;;;;;122.23;53.83;;;;;;;;;;5073290;28;20372;-72
2022/03/16 04:25:28;;;;;;;160.83;56.03;;;;;;;;;;5073324;28;20887;-72
2022/03/16 04:27:54;;;;;;;110.03;52.00;;;;;;;;;;5073191;28;20465;-72
2022/03/16 04:30:20;;;;;;;105.67;52.17;;;;;;;;;;5073366;28;20410;-72
2022/03/16 04:32:51;;;;;;;116.10;52.40;;;;;;;;;;5073304;28;20441;-72
2022/03/16 04:35:17;;;;;;;142.80;53.53;;;;;;;;;;5073657;28;20398;-72
2022/03/16 04:37:43;;;;;;;117.23;53.50;;;;;;;;;;5072987;28;20476;-72
2022/03/16 04:40:09;;;;;;;98.20;50.60;;;;;;;;;;5073252;28;20497;-72
2022/03/16 04:42:35;;;;;;;102.10;50.60;;;;;;;;;;5073256;28;20741;-71
2022/03/16 04:45:02;;;;;;;93.03;48.70;;;;;;;;;;5073138;28;20844;-73
2022/03/16 04:47:28;;;;;;;93.00;47.70;;;;;;;;;;5073423;28;20457;-72
2022/03/16 04:49:54;;;;;;;109.77;47.90;;;;;;;;;;5073204;28;20406;-72
2022/03/16 04:52:20;;;;;;;91.97;48.27;;;;;;;;;;5073120;28;20870;-72
2022/03/16 04:54:45;;;;;;;95.63;49.87;;;;;;;;;;5073137;28;20441;-72
2022/03/16 04:57:11;;;;;;;95.80;49.03;;;;;;;;;;5073069;28;20398;-71
2022/03/16 04:59:37;;;;;;;99.97;49.50;;;;;;;;;;5073001;28;20442;-71
2022/03/16 05:02:04;;;;;;;96.67;49.80;;;;;;;;;;5073122;28;20448;-72
2022/03/16 05:04:30;;;;;;;99.07;50.00;;;;;;;;;;5071737;28;20922;-72
2022/03/16 05:06:56;;;;;;;97.87;49.10;;;;;;;;;;5073246;28;20410;-72
2022/03/16 05:09:22;;;;;;;94.03;49.63;;;;;;;;;;5073305;28;20418;-72
2022/03/16 05:11:48;;;;;;;93.23;49.63;;;;;;;;;;5072966;28;20750;-71
2022/03/16 05:14:14;;;;;;;95.27;49.87;;;;;;;;;;5073146;28;20397;-72
2022/03/16 05:16:40;;;;;;;89.80;47.90;;;;;;;;;;5071654;28;20491;-73
2022/03/16 05:19:06;;;;;;;99.73;50.90;;;;;;;;;;5073171;28;20442;-71
2022/03/16 05:21:32;;;;;;;102.83;50.27;;;;;;;;;;5072854;28;20442;-72
2022/03/16 05:23:58;;;;;;;84.10;46.70;;;;;;;;;;5072881;28;20414;-72
2022/03/16 05:26:24;;;;;;;86.77;47.37;;;;;;;;;;5072782;28;20437;-72
2022/03/16 05:28:52;;;;;;;91.73;47.10;;;;;;;;;;5072718;28;20505;-71
2022/03/16 05:31:18;;;;;;;87.20;46.40;;;;;;;;;;5072845;28;20394;-71
2022/03/16 05:33:44;;;;;;;96.30;49.20;;;;;;;;;;5072799;28;20425;-71
2022/03/16 05:36:10;;;;;;;100.60;50.37;;;;;;;;;;5074659;28;20459;-71
2022/03/16 05:38:36;;;;;;;92.80;47.70;;;;;;;;;;5076116;28;20451;-72
2022/03/16 05:41:02;;;;;;;102.83;48.90;;;;;;;;;;5076124;28;20504;-72
2022/03/16 05:43:28;;;;;;;91.33;48.93;;;;;;;;;;5076156;28;20425;-72
2022/03/16 05:45:54;;;;;;;89.17;49.03;;;;;;;;;;5076173;28;20813;-72
2022/03/16 05:48:20;;;;;;;96.80;51.43;;;;;;;;;;5076051;28;20457;-72
2022/03/16 05:50:46;;;;;;;100.87;52.33;;;;;;;;;;5076093;28;20857;-71
2022/03/16 05:53:13;;;;;;;93.07;46.70;;;;;;;;;;5076067;28;20394;-71
2022/03/16 05:55:39;;;;;;;86.73;47.33;;;;;;;;;;5076094;28;20424;-71
2022/03/16 05:58:05;;;;;;;90.80;46.63;;;;;;;;;;5074696;28;20389;-72
2022/03/16 06:00:31;;;;;;;92.20;45.60;;;;;;;;;;5075943;28;20421;-72
2022/03/16 06:02:58;;;;;;;93.33;46.87;;;;;;;;;;5075885;28;20901;-71
2022/03/16 06:05:24;;;;;;;90.47;46.10;;;;;;;;;;5075862;28;20418;-71
2022/03/16 06:07:50;;;;;;;99.60;47.07;;;;;;;;;;5075722;28;20492;-72
2022/03/16 06:10:17;;;;;;;94.40;47.67;;;;;;;;;;5076003;28;20869;-71
2022/03/16 06:13:00;;;;;;;103.53;50.33;;;;;;;;;;5075992;28;20377;-70
2022/03/16 06:15:27;;;;;;;94.43;46.90;;;;;;;;;;5075915;28;20402;-72
2022/03/16 06:17:54;;;;;;;97.30;48.80;;;;;;;;;;5075579;28;20493;-72
2022/03/16 06:20:20;;;;;;;99.17;46.00;;;;;;;;;;5075796;28;20767;-72
2022/03/16 06:22:46;;;;;;;94.80;49.20;;;;;;;;;;5075481;28;20420;-72
2022/03/16 06:25:12;;;;;;;100.33;50.53;;;;;;;;;;5075426;28;20379;-73
2022/03/16 06:27:38;;;;;;;110.93;44.47;;;;;;;;;;5075318;28;20468;-72
2022/03/16 06:30:05;;;;;;;76.07;40.53;;;;;;;;;;5075418;28;20497;-72
2022/03/16 06:32:31;;;;;;;84.27;43.40;;;;;;;;;;5075294;28;20460;-73
2022/03/16 06:34:57;;;;;;;77.27;41.40;;;;;;;;;;5075305;28;20841;-72
2022/03/16 06:37:23;;;;;;;93.03;44.80;;;;;;;;;;5075065;28;20541;-72
2022/03/16 06:39:48;;;;;;;89.83;46.97;;;;;;;;;;5075182;28;20500;-71
2022/03/16 06:42:14;;;;;;;89.53;46.80;;;;;;;;;;5075173;28;20497;-73
2022/03/16 06:44:40;;;;;;;85.67;43.90;;;;;;;;;;5075002;28;20554;-71
2022/03/16 06:47:06;;;;;;;78.53;41.77;;;;;;;;;;5074990;28;20463;-70
2022/03/16 06:49:32;;;;;;;82.13;42.03;;;;;;;;;;5074922;28;20487;-76
2022/03/16 06:51:58;;;;;;;73.53;41.00;;;;;;;;;;5074915;28;20423;-73
2022/03/16 06:54:24;;;;;;;75.00;40.90;;;;;;;;;;5074970;28;20389;-73
2022/03/16 06:56:50;;;;;;;84.97;41.60;;;;;;;;;;5075093;28;20493;-73
2022/03/16 06:59:17;;;;;;;92.73;46.57;;;;;;;;;;5074735;28;20431;-69
2022/03/16 07:01:43;;;;;;;80.73;43.37;;;;;;;;;;5074733;28;20403;-73
2022/03/16 07:04:09;;;;;;;75.07;39.50;;;;;;;;;;5074602;28;20406;-71
2022/03/16 07:06:35;;;;;;;84.37;43.50;;;;;;;;;;5073269;28;20940;-73
2022/03/16 07:09:02;;;;;;;81.30;42.97;;;;;;;;;;5074545;28;20443;-72
2022/03/16 07:11:28;;;;;;;81.23;42.03;;;;;;;;;;5074636;28;20364;-70
2022/03/16 07:16:41;;;;;;;73.63;41.30;;;;;;;;;;5074534;28;20380;-72
2022/03/16 07:19:07;;;;;;;87.17;44.70;;;;;;;;;;5074404;28;20422;-71
2022/03/16 07:21:33;;;;;;;106.73;46.40;;;;;;;;;;5072954;28;20938;-70
2022/03/16 07:23:59;;;;;;;90.87;47.70;;;;;;;;;;5074374;28;20763;-71
2022/03/16 07:26:27;;;;;;;125.77;47.80;;;;;;;;;;5074218;28;20406;-69
2022/03/16 07:28:53;;;;;;;97.97;46.10;;;;;;;;;;5074440;28;20963;-72
2022/03/16 07:31:19;;;;;;;84.87;46.23;;;;;;;;;;5072976;28;20405;-70
2022/03/16 07:33:45;;;;;;;115.67;64.17;;;;;;;;;;5074138;28;20785;-72
2022/03/16 07:36:11;;;;;;;94.67;49.27;;;;;;;;;;5074003;28;20406;-71
2022/03/16 07:38:37;;;;;;;93.63;45.70;;;;;;;;;;5073768;28;20899;-72
2022/03/16 07:41:03;;;;;;;88.23;46.67;;;;;;;;;;5073965;28;20447;-75
2022/03/16 07:43:30;;;;;;;91.57;45.20;;;;;;;;;;5073717;28;20779;-75
2022/03/16 07:45:56;;;;;;;77.93;43.17;;;;;;;;;;5073841;28;20402;-71
2022/03/16 07:48:22;;;;;;;79.47;44.50;;;;;;;;;;5073882;28;20461;-72
2022/03/16 07:50:50;;;;;;;79.70;42.00;;;;;;;;;;5073770;28;20445;-70
2022/03/16 07:53:16;;;;;;;82.77;40.77;;;;;;;;;;5074098;28;20410;-71
2022/03/16 07:55:45;;;;;;;74.83;40.70;;;;;;;;;;5074235;28;20426;-69
2022/03/16 07:58:11;;;;;;;78.37;40.00;;;;;;;;;;5073507;28;20848;-72
2022/03/16 08:00:37;;;;;;;73.23;40.10;;;;;;;;;;5073748;28;20402;-70
2022/03/16 08:03:03;;;;;;;84.00;43.97;;;;;;;;;;5073655;28;20421;-72
2022/03/16 08:05:30;;;;;;;89.50;44.90;;;;;;;;;;5073574;28;20441;-70
2022/03/16 08:07:56;;;;;;;90.20;46.30;;;;;;;;;;5073512;28;20505;-69
2022/03/16 08:10:22;;;;;;;94.10;46.00;;;;;;;;;;5073562;28;20442;-70
2022/03/16 08:12:48;;;;;;;95.70;46.47;;;;;;;;;;5073634;28;20459;-70
2022/03/16 08:15:14;;;;;;;92.30;46.93;;;;;;;;;;5073357;28;20790;-71
2022/03/16 08:17:40;;;;;;;94.57;48.03;;;;;;;;;;5073730;28;20414;-70
2022/03/16 08:20:06;;;;;;;91.23;46.10;;;;;;;;;;5073425;28;20764;-74
2022/03/16 08:22:33;;;;;;;95.40;46.97;;;;;;;;;;5073355;28;20450;-69
2022/03/16 08:25:00;;;;;;;85.97;45.23;;;;;;;;;;5073727;28;20406;-72
2022/03/16 08:27:27;;;;;;;79.17;41.10;;;;;;;;;;5073354;28;20461;-71
2022/03/16 08:29:53;;;;;;;76.60;42.70;;;;;;;;;;5073291;28;20426;-69
2022/03/16 08:32:20;;;;;;;81.50;42.57;;;;;;;;;;5073481;28;20426;-70
2022/03/16 08:34:46;;;;;;;86.60;44.20;;;;;;;;;;5073321;28;20425;-70
2022/03/16 08:37:12;;;;;;;86.67;45.27;;;;;;;;;;5073142;28;20414;-70
2022/03/16 08:39:39;;;;;;;98.20;51.57;;;;;;;;;;5073260;28;20418;-70
2022/03/16 08:42:06;;;;;;;101.37;49.50;;;;;;;;;;5073339;28;20408;-76
2022/03/16 08:44:32;;;;;;;91.27;48.30;;;;;;;;;;5073423;28;20421;-74
2022/03/16 08:46:58;;;;;;;91.63;48.50;;;;;;;;;;5072955;28;20779;-71
2022/03/16 08:49:24;;;;;;;88.20;46.90;;;;;;;;;;5073109;28;20425;-70
2022/03/16 08:51:50;;;;;;;90.87;48.67;;;;;;;;;;5071855;28;20501;-72
2022/03/16 08:54:16;;;;;;;86.10;45.13;;;;;;;;;;5073104;28;20381;-73
2022/03/16 08:56:43;;;;;;;84.10;45.07;;;;;;;;;;5073171;28;20453;-71
2022/03/16 08:59:09;;;;;;;85.30;45.50;;;;;;;;;;5073023;28;20475;-71
2022/03/16 09:01:35;;;;;;;86.80;44.80;;;;;;;;;;5073149;28;20402;-71
2022/03/16 09:04:02;;;;;;;80.07;42.90;;;;;;;;;;5073016;28;20988;-71
2022/03/16 09:06:29;;;;;;;89.33;48.20;;;;;;;;;;5073047;28;20390;-71
2022/03/16 09:08:54;;;;;;;87.93;47.47;;;;;;;;;;5072961;28;20462;-73
2022/03/16 09:11:21;;;;;;;101.77;54.33;;;;;;;;;;5076246;28;20409;-69
2022/03/16 09:13:49;;;;;;;74.33;41.20;;;;;;;;;;5076869;28;20414;-71
2022/03/16 09:16:15;;;;;;;67.60;40.17;;;;;;;;;;5076784;28;20386;-73
2022/03/16 09:18:42;;;;;;;79.57;43.47;;;;;;;;;;5076755;28;20884;-73
2022/03/16 09:21:08;;;;;;;85.30;44.27;;;;;;;;;;5076737;28;20437;-69
2022/03/16 09:23:34;;;;;;;91.00;44.23;;;;;;;;;;5076754;28;20434;-70
2022/03/16 09:26:00;;;;;;;79.20;43.93;;;;;;;;;;5076575;28;20406;-73
2022/03/16 09:28:27;;;;;;;71.03;40.57;;;;;;;;;;5076547;28;20477;-71
2022/03/16 09:30:53;;;;;;;60.87;37.87;;;;;;;;;;5076368;28;20448;-71
2022/03/16 09:33:20;;;;;;;64.53;37.83;;;;;;;;;;5076230;28;20421;-70
2022/03/16 09:35:46;;;;;;;62.63;36.63;;;;;;;;;;5076319;28;20494;-72
2022/03/16 09:38:12;;;;;;;60.90;36.40;;;;;;;;;;5076323;28;20497;-76
2022/03/16 09:40:38;;;;;;;65.53;37.80;;;;;;;;;;5076349;28;20880;-78
2022/03/16 09:43:08;;;;;;;65.47;37.50;;;;;;;;;;5076259;28;20402;-75
2022/03/16 09:45:40;;;;;;;66.80;38.03;;;;;;;;;;5076348;28;20444;-76
2022/03/16 09:48:07;;;;;;;68.37;38.63;;;;;;;;;;5076179;28;20938;-72
2022/03/16 09:50:33;;;;;;;60.30;36.93;;;;;;;;;;5076647;28;20434;-74
2022/03/16 09:52:59;;;;;;;72.43;38.00;;;;;;;;;;5076074;28;20410;-76
2022/03/16 09:55:25;;;;;;;67.57;37.67;;;;;;;;;;5076020;28;20402;-75
2022/03/16 09:57:51;;;;;;;76.70;40.50;;;;;;;;;;5075906;28;20885;-70
2022/03/16 10:00:18;;;;;;;81.53;42.47;;;;;;;;;;5075933;28;20410;-73
2022/03/16 10:02:44;;;;;;;78.43;41.20;;;;;;;;;;5074713;28;21015;-73
2022/03/16 10:05:11;;;;;;;76.53;43.17;;;;;;;;;;5075833;28;20497;-72
2022/03/16 10:07:37;;;;;;;71.60;39.93;;;;;;;;;;5075798;28;20453;-74
2022/03/16 10:15:36;;;;;;;60.40;36.27;;;;;;;;;;5075947;28;20806;-71
2022/03/16 10:18:03;;;;;;;58.97;35.90;;;;;;;;;;5075299;28;20398;-77
2022/03/16 10:20:31;;;;;;;67.33;38.30;;;;;;;;;;5074764;28;20539;-72
2022/03/16 10:22:57;;;;;;;64.80;37.00;;;;;;;;;;5074989;28;20406;-72
2022/03/16 10:25:23;;;;;;;65.70;39.20;;;;;;;;;;5074836;28;20404;-72
2022/03/16 10:27:49;;;;;;;69.70;38.57;;;;;;;;;;5074700;28;20465;-70
2022/03/16 10:30:15;;;;;;;62.43;36.83;;;;;;;;;;5074890;28;20410;-71
2022/03/16 10:32:52;;;;;;;59.83;37.37;;;;;;;;;;5074839;28;20438;-72
2022/03/16 10:35:18;;;;;;;72.40;37.40;;;;;;;;;;5075218;28;20485;-72
2022/03/16 10:37:45;;;;;;;62.83;38.53;;;;;;;;;;5075102;28;20505;-73
2022/03/16 10:40:18;;;;;;;61.53;35.57;;;;;;;;;;5075497;28;20820;-74
2022/03/16 10:48:14;;;;;;;71.17;38.67;;;;;;;;;;5075027;28;20476;-73
2022/03/16 10:50:41;;;;;;;67.53;37.07;;;;;;;;;;5074988;28;20402;-74
2022/03/16 10:53:07;;;;;;;66.70;37.00;;;;;;;;;;5074854;28;20418;-72
2022/03/16 10:55:35;;;;;;;60.50;36.70;;;;;;;;;;5074837;28;20837;-73
2022/03/16 10:58:02;;;;;;;61.17;37.03;;;;;;;;;;5074888;28;20404;-73
2022/03/16 11:00:28;;;;;;;67.27;35.80;;;;;;;;;;5074745;28;20901;-71
2022/03/16 11:02:55;;;;;;;66.17;35.23;;;;;;;;;;5073428;28;20977;-72
2022/03/16 11:05:23;;;;;;;59.23;36.30;;;;;;;;;;5074738;28;20409;-75
2022/03/16 11:07:50;;;;;;;58.23;34.90;;;;;;;;;;5073394;28;20828;-73
2022/03/16 11:10:17;;;;;;;62.83;34.70;;;;;;;;;;5074521;28;20413;-74
2022/03/16 11:15:28;;;;;;;66.43;38.50;;;;;;;;;;5074648;28;20456;-73
2022/03/16 11:17:54;;;;;;;64.97;37.60;;;;;;;;;;5074466;28;20417;-73
2022/03/16 11:20:21;;;;;;;74.23;39.83;;;;;;;;;;5074444;28;20410;-73
2022/03/16 11:25:43;;;;;;;69.93;39.33;;;;;;;;;;5074325;28;20908;-73
2022/03/16 11:28:14;;;;;;;61.63;35.87;;;;;;;;;;5074047;28;20465;-73
2022/03/16 11:30:41;;;;;;;66.00;36.17;;;;;;;;;;5074209;28;20406;-73
2022/03/16 11:33:11;;;;;;;56.97;35.13;;;;;;;;;;5073520;28;20513;-74
2022/03/16 11:35:44;;;;;;;53.60;33.40;;;;;;;;;;5074266;28;20490;-74
2022/03/16 11:38:12;;;;;;;59.30;36.83;;;;;;;;;;5074072;28;20556;-76
2022/03/16 11:40:43;;;;;;;65.13;36.20;;;;;;;;;;5074026;28;20394;-73
2022/03/16 11:43:11;;;;;;;68.50;38.93;;;;;;;;;;5073840;28;20403;-76
2022/03/16 11:45:51;;;;;;;72.97;37.33;;;;;;;;;;5072566;28;20762;-76
2022/03/16 11:48:31;;;;;;;64.20;38.50;;;;;;;;;;5073800;28;20461;-75
2022/03/16 11:51:07;;;;;;;70.77;38.60;;;;;;;;;;5073726;28;20481;-73
2022/03/16 11:56:35;;;;;;;69.63;39.53;;;;;;;;;;5064549;28;20969;-75
2022/03/16 11:59:05;;;;;;;70.87;38.77;;;;;;;;;;5072416;28;20436;-77
2022/03/16 12:01:32;;;;;;;66.50;37.53;;;;;;;;;;5073652;28;20399;-75
2022/03/16 12:04:08;;;;;;;59.80;36.10;;;;;;;;;;5073700;28;20438;-73
2022/03/16 12:06:53;;;;;;;66.17;39.17;;;;;;;;;;5073706;28;20402;-73
2022/03/16 12:09:24;;;;;;;67.30;37.80;;;;;;;;;;5073463;28;20497;-73
2022/03/16 12:15:09;;;;;;;65.00;38.70;;;;;;;;;;5068227;28;20444;-73
2022/03/16 12:17:36;;;;;;;64.27;38.90;;;;;;;;;;5073710;28;20501;-75
2022/03/16 12:20:12;;;;;;;62.23;37.80;;;;;;;;;;5073439;28;20413;-74
2022/03/16 12:22:38;;;;;;;62.50;37.07;;;;;;;;;;5073742;28;20444;-73
2022/03/16 12:25:25;;;;;;;55.07;34.30;;;;;;;;;;5073382;28;20402;-72
2022/03/16 12:30:54;;;;;;;48.07;31.80;;;;;;;;;;5073397;28;20446;-73
2022/03/16 12:33:25;;;;;;;48.70;32.40;;;;;;;;;;5073345;28;20399;-72
2022/03/16 12:36:01;;;;;;;49.07;32.80;;;;;;;;;;5073411;28;20413;-75
2022/03/16 12:38:31;;;;;;;52.27;33.10;;;;;;;;;;5073153;28;20470;-74
2022/03/16 12:43:47;;;;;;;44.77;29.77;;;;;;;;;;5074259;28;20421;-73
2022/03/16 12:46:24;;;;;;;47.93;30.63;;;;;;;;;;5077579;28;20402;-73
2022/03/16 12:48:54;;;;;;;48.73;32.83;;;;;;;;;;5076977;28;20614;-76
2022/03/16 12:51:38;;;;;;;51.80;32.80;;;;;;;;;;5077448;28;20417;-73
2022/03/16 12:54:08;;;;;;;59.00;32.97;;;;;;;;;;5077158;28;20397;-73
2022/03/16 12:56:40;;;;;;;52.03;34.43;;;;;;;;;;5077130;28;20400;-74
2022/03/16 12:59:06;;;;;;;57.27;36.43;;;;;;;;;;5077018;28;20439;-76
2022/03/16 13:01:32;;;;;;;51.37;33.53;;;;;;;;;;5077177;28;20402;-74
2022/03/16 13:04:01;;;;;;;55.30;34.73;;;;;;;;;;5076997;28;20919;-72
2022/03/16 13:06:33;;;;;;;59.23;36.10;;;;;;;;;;5076924;28;20861;-73
2022/03/16 13:08:59;;;;;;;58.17;36.47;;;;;;;;;;5076866;28;20466;-73
2022/03/16 13:11:28;;;;;;;52.13;34.27;;;;;;;;;;5076798;28;20459;-72
2022/03/16 13:14:02;;;;;;;68.07;37.60;;;;;;;;;;5077138;28;20512;-73
2022/03/16 13:16:38;;;;;;;57.43;36.10;;;;;;;;;;5075651;28;20405;-73
2022/03/16 13:19:05;;;;;;;56.73;35.70;;;;;;;;;;5077017;28;20496;-76
2022/03/16 13:21:31;;;;;;;61.00;35.47;;;;;;;;;;5077040;28;20477;-76
2022/03/16 13:24:06;;;;;;;54.23;34.93;;;;;;;;;;5076685;28;20519;-71
2022/03/16 13:26:33;;;;;;;57.07;35.27;;;;;;;;;;5076519;28;20477;-72
2022/03/16 13:29:00;;;;;;;63.40;35.77;;;;;;;;;;5076304;28;20505;-71
2022/03/16 13:31:30;;;;;;;57.77;35.60;;;;;;;;;;5076472;28;21135;-74
2022/03/16 13:34:02;;;;;;;55.67;34.63;;;;;;;;;;5076526;28;20410;-72
2022/03/16 13:36:35;;;;;;;55.83;32.77;;;;;;;;;;5076334;28;20403;-71
2022/03/16 13:39:21;;;;;;;57.03;34.73;;;;;;;;;;5076271;28;20461;-71
2022/03/16 13:42:07;;;;;;;57.70;36.70;;;;;;;;;;5076141;28;20943;-71
2022/03/16 13:44:37;;;;;;;61.60;38.23;;;;;;;;;;5076122;28;20432;-74
2022/03/16 13:47:03;;;;;;;58.13;37.07;;;;;;;;;;5076280;28;20770;-74
2022/03/16 13:49:34;;;;;;;50.90;34.77;;;;;;;;;;5075916;28;20963;-72
2022/03/16 13:52:11;;;;;;;53.67;33.93;;;;;;;;;;5076125;28;20934;-71
2022/03/16 13:54:38;;;;;;;62.03;36.47;;;;;;;;;;5074653;28;20451;-70
2022/03/16 13:57:07;;;;;;;54.23;35.40;;;;;;;;;;5075258;28;20406;-71
2022/03/16 13:59:34;;;;;;;57.73;35.20;;;;;;;;;;5075938;28;20433;-71
2022/03/16 14:02:13;;;;;;;53.57;35.00;;;;;;;;;;5076032;28;20496;-72
2022/03/16 14:04:42;;;;;;;56.30;35.03;;;;;;;;;;5075920;28;20436;-72
2022/03/16 14:07:20;;;;;;;57.20;35.00;;;;;;;;;;5074452;28;20909;-72
2022/03/16 14:09:46;;;;;;;58.30;34.97;;;;;;;;;;5075716;28;20425;-72
2022/03/16 14:12:15;;;;;;;57.30;34.43;;;;;;;;;;5075767;28;20402;-76
2022/03/16 14:14:45;;;;;;;54.27;35.57;;;;;;;;;;5075620;28;20509;-77
2022/03/16 14:17:11;;;;;;;57.07;35.47;;;;;;;;;;5075640;28;20410;-76
2022/03/16 14:19:38;;;;;;;63.37;35.80;;;;;;;;;;5075570;28;20909;-75
2022/03/16 14:22:05;;;;;;;56.07;35.17;;;;;;;;;;5075486;28;20409;-75
2022/03/16 14:24:33;;;;;;;57.40;35.23;;;;;;;;;;5075439;28;20426;-75
2022/03/16 14:27:15;;;;;;;54.20;34.37;;;;;;;;;;5074267;28;20426;-76
2022/03/16 14:29:42;;;;;;;60.17;36.83;;;;;;;;;;5074131;28;20437;-72
2022/03/16 14:32:08;;;;;;;58.60;35.57;;;;;;;;;;5075363;28;20497;-72
2022/03/16 14:34:34;;;;;;;59.10;35.40;;;;;;;;;;5075361;28;20446;-72
2022/03/16 14:37:00;;;;;;;59.20;37.30;;;;;;;;;;5075346;28;20438;-75
2022/03/16 14:39:27;;;;;;;62.03;35.33;;;;;;;;;;5075154;28;20457;-76
2022/03/16 14:41:55;;;;;;;59.23;36.00;;;;;;;;;;5073954;28;20426;-76
2022/03/16 14:44:21;;;;;;;54.93;36.17;;;;;;;;;;5075194;28;20418;-75
2022/03/16 14:46:47;;;;;;;66.73;39.37;;;;;;;;;;5073803;28;20572;-74
2022/03/16 14:49:13;;;;;;;63.90;36.77;;;;;;;;;;5074958;28;20477;-76